Time;durP1;ratioP1;P1;durP2;ratioP2;P2;SDS_P1;SDS_P2;PMS_P1;PMS_P2;Temp;Humidity;BMP_temperature;BMP_pressure;BME280_temperature;BME280_humidity;BME280_pressure;Samples;Min_cycle;Max_cycle;Signal;HPM_P1;HPM_P2
2022/03/06 00:01:31;;;;;;;22.20;14.53;;;-2.70;99.90;;;;;;5071088;28;20570;-73
2022/03/06 00:04:00;;;;;;;22.97;14.93;;;-2.70;99.90;;;;;;5071556;28;20434;-74
2022/03/06 00:06:29;;;;;;;23.93;16.10;;;-2.70;99.90;;;;;;5071563;28;20445;-74
2022/03/06 00:08:57;;;;;;;25.87;16.30;;;-2.70;99.90;;;;;;5071817;28;20899;-75
2022/03/06 00:11:25;;;;;;;25.53;15.70;;;-2.70;99.90;;;;;;5071380;28;20536;-75
2022/03/06 00:13:55;;;;;;;24.00;15.87;;;-2.70;99.90;;;;;;5073437;28;20950;-73
2022/03/06 00:16:25;;;;;;;24.43;16.47;;;-2.70;99.90;;;;;;5075269;28;20542;-76
2022/03/06 00:18:53;;;;;;;23.83;16.20;;;-2.70;99.90;;;;;;5075515;28;20503;-74
2022/03/06 00:21:22;;;;;;;24.93;17.13;;;-2.80;99.90;;;;;;5074697;28;20485;-73
2022/03/06 00:23:50;;;;;;;23.53;15.43;;;-2.80;99.90;;;;;;5075171;28;20461;-73
2022/03/06 00:26:18;;;;;;;24.20;16.70;;;-2.80;99.90;;;;;;5074790;28;20544;-75
2022/03/06 00:28:48;;;;;;;24.83;16.57;;;-2.80;99.90;;;;;;5074829;28;20547;-73
2022/03/06 00:31:16;;;;;;;23.73;15.87;;;-2.80;99.90;;;;;;5075268;28;20452;-75
2022/03/06 00:33:51;;;;;;;25.00;16.23;;;-2.90;99.90;;;;;;5076409;28;20532;-76
2022/03/06 00:36:20;;;;;;;25.20;16.73;;;-2.90;99.90;;;;;;5077139;28;20497;-75
2022/03/06 00:38:48;;;;;;;24.27;16.40;;;-2.90;99.90;;;;;;5077809;28;20531;-75
2022/03/06 00:41:18;;;;;;;24.60;16.40;;;-2.90;99.90;;;;;;5076261;28;20481;-73
2022/03/06 00:43:47;;;;;;;23.40;15.90;;;-2.90;99.90;;;;;;5075269;28;20449;-76
2022/03/06 00:46:15;;;;;;;24.67;16.73;;;-3.00;99.90;;;;;;5074959;28;20765;-75
2022/03/06 00:48:46;;;;;;;24.97;15.90;;;-3.00;99.90;;;;;;5078143;28;20464;-76
2022/03/06 00:51:16;;;;;;;25.33;15.97;;;-3.00;99.90;;;;;;5077910;28;20452;-73
2022/03/06 00:53:45;;;;;;;25.77;16.67;;;-3.00;99.90;;;;;;5075102;28;20528;-75
2022/03/06 00:56:13;;;;;;;23.10;15.93;;;-3.00;99.90;;;;;;5080877;28;20488;-77
2022/03/06 00:58:42;;;;;;;26.23;17.13;;;-3.10;99.90;;;;;;5084112;28;20876;-76
2022/03/06 01:01:10;;;;;;;24.63;16.23;;;-3.10;99.90;;;;;;5076532;28;20568;-75
2022/03/06 01:03:40;;;;;;;23.63;16.17;;;-3.10;99.90;;;;;;5076687;28;20898;-74
2022/03/06 01:06:08;;;;;;;25.37;17.10;;;-3.20;99.90;;;;;;5076209;28;20449;-75
2022/03/06 01:08:37;;;;;;;27.53;17.67;;;-3.20;99.90;;;;;;5076435;28;20960;-73
2022/03/06 01:11:09;;;;;;;25.97;16.63;;;-3.20;99.90;;;;;;5077052;28;20484;-75
2022/03/06 01:13:37;;;;;;;25.33;16.97;;;-3.20;99.90;;;;;;5074840;28;20824;-74
2022/03/06 01:16:05;;;;;;;25.07;17.07;;;-3.20;99.90;;;;;;5075360;28;20494;-75
2022/03/06 01:18:33;;;;;;;26.00;17.63;;;-3.20;99.90;;;;;;5075007;28;20452;-76
2022/03/06 01:21:02;;;;;;;24.33;17.30;;;-3.20;99.90;;;;;;5074777;28;20536;-74
2022/03/06 01:23:31;;;;;;;24.70;17.23;;;-3.20;99.90;;;;;;5073682;28;20442;-73
2022/03/06 01:26:00;;;;;;;31.43;18.60;;;-3.20;99.90;;;;;;5074085;28;20551;-75
2022/03/06 01:28:28;;;;;;;27.83;17.90;;;-3.20;99.90;;;;;;5074609;28;20509;-75
2022/03/06 01:30:57;;;;;;;30.20;18.37;;;-3.20;99.90;;;;;;5074108;28;20509;-75
2022/03/06 01:33:25;;;;;;;27.53;18.00;;;-3.20;99.90;;;;;;5074460;28;20506;-73
2022/03/06 01:35:57;;;;;;;26.40;17.57;;;-3.20;99.90;;;;;;5074247;28;20922;-73
2022/03/06 01:38:25;;;;;;;26.60;17.07;;;-3.20;99.90;;;;;;5073936;28;20524;-73
2022/03/06 01:40:53;;;;;;;25.77;17.40;;;-3.20;99.90;;;;;;5073663;28;20492;-73
2022/03/06 01:43:23;;;;;;;28.03;17.70;;;-3.20;99.90;;;;;;5073900;28;20512;-75
2022/03/06 01:45:51;;;;;;;28.60;17.67;;;-3.20;99.90;;;;;;5074456;28;20498;-75
2022/03/06 01:48:19;;;;;;;28.50;18.33;;;-3.20;99.90;;;;;;5075789;28;20485;-75
2022/03/06 01:50:48;;;;;;;27.60;18.20;;;-3.20;99.90;;;;;;5073969;28;20588;-77
2022/03/06 01:53:20;;;;;;;28.60;18.27;;;-3.20;99.90;;;;;;5074003;28;20540;-75
2022/03/06 01:55:48;;;;;;;27.00;17.30;;;-3.20;99.90;;;;;;5073933;28;20484;-77
2022/03/06 01:58:16;;;;;;;30.30;18.50;;;-3.20;99.90;;;;;;5073221;28;20552;-76
2022/03/06 02:00:49;;;;;;;27.83;17.77;;;-3.20;99.90;;;;;;5072551;28;20500;-73
2022/03/06 02:03:19;;;;;;;27.30;17.97;;;-3.20;99.90;;;;;;5073768;28;20476;-75
2022/03/06 02:05:48;;;;;;;28.63;18.33;;;-3.20;99.90;;;;;;5073848;28;20487;-73
2022/03/06 02:08:16;;;;;;;26.47;17.97;;;-3.20;99.90;;;;;;5073169;28;20793;-75
2022/03/06 02:10:44;;;;;;;27.93;18.43;;;-3.20;99.90;;;;;;5073317;28;20461;-74
2022/03/06 02:13:13;;;;;;;29.63;18.33;;;-3.20;99.90;;;;;;5073260;28;20458;-74
2022/03/06 02:15:42;;;;;;;27.57;18.07;;;-3.20;99.90;;;;;;5073245;28;20508;-75
2022/03/06 02:18:12;;;;;;;29.90;17.70;;;-3.40;99.90;;;;;;5072883;28;20966;-74
2022/03/06 02:20:40;;;;;;;30.03;18.83;;;-3.30;99.90;;;;;;5072870;28;20462;-73
2022/03/06 02:23:12;;;;;;;26.67;18.17;;;-3.30;99.90;;;;;;5063467;28;20499;-75
2022/03/06 02:25:41;;;;;;;28.07;17.77;;;-3.30;99.90;;;;;;5059605;28;20488;-75
2022/03/06 02:28:11;;;;;;;27.53;17.77;;;-3.30;99.90;;;;;;5072842;28;20452;-74
2022/03/06 02:30:43;;;;;;;27.23;18.43;;;-3.40;99.90;;;;;;5072843;28;20527;-73
2022/03/06 02:33:13;;;;;;;27.93;17.87;;;-3.40;99.90;;;;;;5072845;28;20434;-75
2022/03/06 02:35:43;;;;;;;28.10;17.37;;;-3.40;99.90;;;;;;5072097;28;20947;-74
2022/03/06 02:38:13;;;;;;;28.10;17.73;;;-3.40;99.90;;;;;;5072244;28;20978;-74
2022/03/06 02:40:42;;;;;;;26.10;16.83;;;-3.40;99.90;;;;;;5072532;28;20885;-76
2022/03/06 02:43:15;;;;;;;26.87;18.03;;;-3.40;99.90;;;;;;5072858;28;20472;-74
2022/03/06 02:45:46;;;;;;;27.53;17.77;;;-3.30;99.90;;;;;;5073133;28;20517;-73
2022/03/06 02:48:17;;;;;;;29.43;18.67;;;-3.30;99.90;;;;;;5072561;28;20540;-73
2022/03/06 02:50:45;;;;;;;28.00;17.33;;;-3.30;99.90;;;;;;5072509;28;20503;-74
2022/03/06 02:53:14;;;;;;;28.47;17.40;;;-3.30;99.90;;;;;;5072464;28;20828;-74
2022/03/06 02:55:43;;;;;;;28.43;17.47;;;-3.30;99.90;;;;;;5072785;28;20529;-74
2022/03/06 02:58:12;;;;;;;27.47;17.87;;;-3.30;99.90;;;;;;5072619;28;20434;-75
2022/03/06 03:00:41;;;;;;;28.90;17.97;;;-3.30;99.90;;;;;;5072986;28;20528;-74
2022/03/06 03:03:10;;;;;;;25.20;17.20;;;-3.30;99.90;;;;;;5072460;28;20487;-74
2022/03/06 03:05:38;;;;;;;27.43;17.97;;;-3.40;99.90;;;;;;5072040;28;20551;-74
2022/03/06 03:08:07;;;;;;;25.77;16.83;;;-3.40;99.90;;;;;;5072544;28;20476;-74
2022/03/06 03:10:36;;;;;;;26.73;17.63;;;-3.40;99.90;;;;;;5072206;28;20501;-74
2022/03/06 03:13:06;;;;;;;27.13;18.03;;;-3.40;99.90;;;;;;5072818;28;20839;-73
2022/03/06 03:15:34;;;;;;;25.50;17.70;;;-3.40;99.90;;;;;;5072407;28;20639;-75
2022/03/06 03:18:02;;;;;;;29.47;18.03;;;-3.40;99.90;;;;;;5072250;28;20549;-74
2022/03/06 03:20:30;;;;;;;28.80;18.70;;;-3.40;99.90;;;;;;5071295;28;20487;-73
2022/03/06 03:22:58;;;;;;;29.07;18.03;;;-3.40;99.90;;;;;;5073101;28;20555;-75
2022/03/06 03:25:30;;;;;;;28.43;18.13;;;-3.40;99.90;;;;;;5082766;28;21119;-75
2022/03/06 03:28:03;;;;;;;27.13;16.63;;;-3.40;99.90;;;;;;5081203;28;20877;-74
2022/03/06 03:30:33;;;;;;;29.23;17.87;;;-3.30;99.90;;;;;;5075498;28;20430;-73
2022/03/06 03:33:01;;;;;;;28.60;17.77;;;-3.40;99.90;;;;;;5072308;28;20418;-73
2022/03/06 03:35:29;;;;;;;27.43;17.90;;;-3.30;99.90;;;;;;5078489;28;20979;-74
2022/03/06 03:37:58;;;;;;;26.50;17.13;;;-3.30;99.90;;;;;;5079219;28;20819;-74
2022/03/06 03:40:28;;;;;;;29.40;18.30;;;-3.30;99.90;;;;;;5086821;28;20547;-76
2022/03/06 03:42:56;;;;;;;29.37;18.73;;;-3.30;99.90;;;;;;5086847;28;20481;-74
2022/03/06 03:45:25;;;;;;;28.57;17.87;;;-3.30;99.90;;;;;;5087779;28;20883;-75
2022/03/06 03:47:54;;;;;;;27.03;17.13;;;-3.30;99.90;;;;;;5091959;28;20441;-74
2022/03/06 03:50:23;;;;;;;26.37;16.90;;;-3.20;99.90;;;;;;5091286;28;20522;-75
2022/03/06 03:52:54;;;;;;;25.53;16.50;;;-3.20;99.90;;;;;;5086178;28;20459;-74
2022/03/06 03:55:22;;;;;;;28.17;17.10;;;-3.10;99.90;;;;;;5077711;28;20453;-75
2022/03/06 03:57:50;;;;;;;27.63;17.03;;;-3.10;99.90;;;;;;5076109;28;20460;-73
2022/03/06 04:00:18;;;;;;;26.97;16.37;;;-3.10;99.90;;;;;;5074265;28;20505;-74
2022/03/06 04:02:48;;;;;;;24.90;16.83;;;-3.00;99.90;;;;;;5064444;28;20488;-74
2022/03/06 04:05:16;;;;;;;26.17;16.77;;;-3.00;99.90;;;;;;5075554;28;20480;-74
2022/03/06 04:07:44;;;;;;;25.13;16.77;;;-3.00;99.90;;;;;;5076264;28;20453;-75
2022/03/06 04:10:12;;;;;;;24.07;16.33;;;-2.90;99.90;;;;;;5076230;28;20453;-73
2022/03/06 04:12:40;;;;;;;25.30;16.63;;;-2.90;99.90;;;;;;5076888;28;20513;-73
2022/03/06 04:15:09;;;;;;;29.93;16.57;;;-2.90;99.90;;;;;;5076129;28;20453;-74
2022/03/06 04:17:37;;;;;;;24.30;16.00;;;-2.90;99.90;;;;;;5076107;28;20457;-75
2022/03/06 04:20:09;;;;;;;26.20;16.50;;;-2.90;99.90;;;;;;5076494;28;20460;-74
2022/03/06 04:22:37;;;;;;;25.63;15.90;;;-2.90;99.90;;;;;;5077362;28;20460;-73
2022/03/06 04:25:05;;;;;;;22.33;14.87;;;-2.90;99.90;;;;;;5075947;28;21201;-74
2022/03/06 04:27:35;;;;;;;23.63;15.60;;;-3.00;99.90;;;;;;5075324;28;20499;-74
2022/03/06 04:30:04;;;;;;;26.07;17.20;;;-3.00;99.90;;;;;;5076320;28;20473;-73
2022/03/06 04:32:34;;;;;;;27.70;17.10;;;-3.10;99.90;;;;;;5077729;28;20471;-79
2022/03/06 04:35:02;;;;;;;28.63;17.13;;;-3.10;99.90;;;;;;5077268;28;21009;-77
2022/03/06 04:37:32;;;;;;;28.20;17.23;;;-3.10;99.90;;;;;;5077231;28;20464;-75
2022/03/06 04:40:01;;;;;;;26.10;17.03;;;-3.20;99.90;;;;;;5077299;28;20453;-74
2022/03/06 04:42:29;;;;;;;28.47;17.33;;;-3.30;99.90;;;;;;5078344;28;20442;-75
2022/03/06 04:44:59;;;;;;;25.40;16.20;;;-3.30;99.90;;;;;;5078559;28;20568;-76
2022/03/06 04:47:27;;;;;;;25.50;16.17;;;-3.30;99.90;;;;;;5080045;28;20509;-75
2022/03/06 04:49:56;;;;;;;25.17;16.23;;;-3.40;99.90;;;;;;5090188;28;20483;-75
2022/03/06 04:52:25;;;;;;;27.17;16.13;;;-3.30;99.90;;;;;;5090778;28;20441;-75
2022/03/06 04:54:54;;;;;;;26.67;16.50;;;-3.40;99.90;;;;;;5091365;28;20464;-74
2022/03/06 04:57:23;;;;;;;28.50;17.20;;;-3.40;99.90;;;;;;5086837;28;20977;-73
2022/03/06 04:59:51;;;;;;;26.30;16.90;;;-3.40;99.90;;;;;;5078503;28;20438;-75
2022/03/06 05:02:22;;;;;;;24.83;16.10;;;-3.40;99.90;;;;;;5076168;28;20458;-75
2022/03/06 05:04:52;;;;;;;24.33;16.03;;;-3.40;99.90;;;;;;5083306;28;20498;-75
2022/03/06 05:07:20;;;;;;;27.10;16.50;;;-3.40;99.90;;;;;;5079380;28;20437;-75
2022/03/06 05:09:48;;;;;;;24.30;15.77;;;-3.40;99.90;;;;;;5076326;28;20541;-76
2022/03/06 05:12:17;;;;;;;27.30;16.93;;;-3.40;99.90;;;;;;5075423;28;20488;-74
2022/03/06 05:14:45;;;;;;;26.37;16.67;;;-3.40;99.90;;;;;;5074949;28;20556;-75
2022/03/06 05:17:16;;;;;;;28.50;17.00;;;-3.40;99.90;;;;;;5074952;28;20474;-76
2022/03/06 05:19:44;;;;;;;26.33;16.77;;;-3.50;99.90;;;;;;5059856;28;20452;-74
2022/03/06 05:22:12;;;;;;;26.47;16.30;;;-3.50;99.90;;;;;;5055034;28;20487;-74
2022/03/06 05:24:40;;;;;;;24.93;15.57;;;-3.50;99.90;;;;;;5054674;28;20593;-75
2022/03/06 05:27:08;;;;;;;23.77;15.90;;;-3.50;99.90;;;;;;5074032;28;20543;-73
2022/03/06 05:29:40;;;;;;;23.43;15.80;;;-3.60;99.90;;;;;;5075310;28;20513;-73
2022/03/06 05:32:09;;;;;;;24.90;16.17;;;-3.60;99.90;;;;;;5074624;28;20447;-74
2022/03/06 05:34:40;;;;;;;25.87;16.70;;;-3.60;99.90;;;;;;5076123;28;20526;-74
2022/03/06 05:37:08;;;;;;;24.33;15.90;;;-3.60;99.90;;;;;;5074640;28;20456;-74
2022/03/06 05:39:36;;;;;;;27.10;16.57;;;-3.60;99.90;;;;;;5074122;28;20536;-76
2022/03/06 05:42:06;;;;;;;25.03;16.50;;;-3.60;99.90;;;;;;5073419;28;20454;-73
2022/03/06 05:44:34;;;;;;;24.70;15.97;;;-3.60;99.90;;;;;;5075564;28;20527;-74
2022/03/06 05:47:04;;;;;;;23.33;15.63;;;-3.60;99.90;;;;;;5078060;28;20465;-74
2022/03/06 05:49:32;;;;;;;26.97;16.53;;;-3.60;99.90;;;;;;5082138;28;20473;-74
2022/03/06 05:52:02;;;;;;;27.70;16.97;;;-3.50;99.90;;;;;;5088274;28;20441;-74
2022/03/06 05:54:32;;;;;;;28.13;16.57;;;-3.50;99.90;;;;;;5077419;28;20559;-76
2022/03/06 05:57:00;;;;;;;24.97;16.07;;;-3.50;99.90;;;;;;5074278;28;20448;-73
2022/03/06 05:59:28;;;;;;;25.83;16.03;;;-3.50;99.90;;;;;;5074253;28;20547;-74
2022/03/06 06:01:59;;;;;;;24.80;16.10;;;-3.50;99.90;;;;;;5074456;28;20444;-75
2022/03/06 06:04:30;;;;;;;28.33;16.90;;;-3.60;99.90;;;;;;5074834;28;20499;-74
2022/03/06 06:06:59;;;;;;;26.27;15.80;;;-3.50;99.90;;;;;;5074479;28;20453;-77
2022/03/06 06:09:27;;;;;;;25.73;16.20;;;-3.50;99.90;;;;;;5075808;28;20551;-76
2022/03/06 06:11:55;;;;;;;24.80;16.53;;;-3.40;99.90;;;;;;5075688;28;20461;-74
2022/03/06 06:14:23;;;;;;;26.03;16.33;;;-3.40;99.90;;;;;;5076480;28;20808;-74
2022/03/06 06:16:51;;;;;;;25.03;16.77;;;-3.40;99.90;;;;;;5070166;28;20475;-73
2022/03/06 06:19:20;;;;;;;24.57;15.90;;;-3.40;99.90;;;;;;5053941;28;20493;-73
2022/03/06 06:21:50;;;;;;;24.77;16.03;;;-3.30;99.90;;;;;;5052088;28;20563;-73
2022/03/06 06:24:18;;;;;;;25.97;17.07;;;-3.20;99.90;;;;;;5052884;28;20657;-73
2022/03/06 06:26:47;;;;;;;25.70;16.83;;;-3.20;99.90;;;;;;5068419;28;20880;-74
2022/03/06 06:29:21;;;;;;;24.13;16.27;;;-3.20;99.90;;;;;;5072566;28;20481;-73
2022/03/06 06:31:50;;;;;;;24.03;16.47;;;-3.10;99.90;;;;;;5072323;28;20509;-76
2022/03/06 06:34:18;;;;;;;24.97;16.33;;;-3.00;99.90;;;;;;5072271;28;20514;-74
2022/03/06 06:36:46;;;;;;;23.67;16.40;;;-2.90;99.90;;;;;;5072278;28;20520;-74
2022/03/06 06:39:20;;;;;;;25.73;16.50;;;-2.90;99.90;;;;;;5052740;28;20786;-75
2022/03/06 06:41:48;;;;;;;27.17;17.73;;;-2.80;99.90;;;;;;5052569;28;20799;-74
2022/03/06 06:44:17;;;;;;;26.07;17.13;;;-2.70;99.90;;;;;;5052016;28;20562;-74
2022/03/06 06:46:48;;;;;;;25.37;17.47;;;-2.70;99.90;;;;;;5052229;28;20450;-75
2022/03/06 06:49:16;;;;;;;25.77;16.77;;;-2.70;99.90;;;;;;5054122;28;20565;-74
2022/03/06 06:51:44;;;;;;;27.37;16.37;;;-2.70;99.90;;;;;;5081063;28;20496;-75
2022/03/06 06:54:13;;;;;;;25.97;16.87;;;-2.60;99.90;;;;;;5072238;28;20528;-75
2022/03/06 06:56:43;;;;;;;23.73;15.77;;;-2.50;99.90;;;;;;5074640;28;20481;-74
2022/03/06 06:59:13;;;;;;;23.10;15.40;;;-2.40;99.90;;;;;;5074895;28;20453;-74
2022/03/06 07:01:42;;;;;;;24.47;15.70;;;-2.20;99.90;;;;;;5073709;28;20924;-74
2022/03/06 07:04:10;;;;;;;25.27;16.37;;;-2.10;99.90;;;;;;5072948;28;20512;-74
2022/03/06 07:06:38;;;;;;;22.90;15.27;;;-2.00;99.90;;;;;;5072736;28;20951;-74
2022/03/06 07:09:08;;;;;;;25.37;15.80;;;-1.90;99.90;;;;;;5073087;28;20464;-73
2022/03/06 07:11:36;;;;;;;24.30;16.23;;;-1.80;99.90;;;;;;5072130;28;20546;-73
2022/03/06 07:14:05;;;;;;;20.20;14.80;;;-1.70;99.90;;;;;;5072937;28;20549;-74
2022/03/06 07:16:33;;;;;;;23.67;15.77;;;-1.60;99.90;;;;;;5059489;28;20455;-74
2022/03/06 07:19:02;;;;;;;22.57;15.10;;;-1.40;99.90;;;;;;5052144;28;20541;-75
2022/03/06 07:21:30;;;;;;;23.13;15.13;;;-1.20;99.90;;;;;;5051116;28;21006;-73
2022/03/06 07:23:58;;;;;;;21.20;14.43;;;-1.10;99.90;;;;;;5051871;28;20482;-76
2022/03/06 07:26:26;;;;;;;20.30;14.27;;;-0.90;99.90;;;;;;5052132;28;20490;-74
2022/03/06 07:28:59;;;;;;;24.13;14.47;;;-0.70;99.90;;;;;;5071814;28;20519;-74
2022/03/06 07:31:31;;;;;;;22.43;14.90;;;-0.50;99.90;;;;;;5071547;28;20441;-74
2022/03/06 07:34:01;;;;;;;21.30;14.80;;;-0.40;99.90;;;;;;5072083;28;20528;-75
2022/03/06 07:36:29;;;;;;;19.30;13.93;;;-0.50;99.90;;;;;;5071861;28;20625;-75
2022/03/06 07:38:57;;;;;;;19.80;14.70;;;-0.40;99.90;;;;;;5071444;28;20480;-75
2022/03/06 07:41:25;;;;;;;19.43;14.03;;;-0.30;99.90;;;;;;5072173;28;20478;-74
2022/03/06 07:43:53;;;;;;;20.77;14.43;;;-0.20;99.90;;;;;;5073010;28;20446;-74
2022/03/06 07:46:22;;;;;;;19.53;13.87;;;-0.10;99.90;;;;;;5071741;28;20499;-76
2022/03/06 07:48:52;;;;;;;20.17;14.10;;;0.00;99.90;;;;;;5071665;28;20450;-74
2022/03/06 07:51:20;;;;;;;19.53;13.77;;;0.10;99.90;;;;;;5071246;28;20994;-75
2022/03/06 07:53:48;;;;;;;21.23;14.50;;;0.10;99.90;;;;;;5071930;28;20544;-77
2022/03/06 07:56:16;;;;;;;17.93;12.83;;;0.30;99.90;;;;;;5071797;28;20875;-74
2022/03/06 07:58:45;;;;;;;19.07;12.73;;;0.50;99.90;;;;;;5071638;28;20453;-74
2022/03/06 08:01:16;;;;;;;18.10;13.23;;;0.60;99.90;;;;;;5071433;28;20958;-74
2022/03/06 08:03:44;;;;;;;17.77;13.13;;;0.80;99.90;;;;;;5070674;28;20513;-75
2022/03/06 08:06:13;;;;;;;17.33;12.43;;;0.90;99.90;;;;;;5070731;28;20965;-75
2022/03/06 08:08:43;;;;;;;17.70;13.03;;;1.00;99.90;;;;;;5071618;28;20558;-76
2022/03/06 08:11:12;;;;;;;17.83;12.23;;;1.20;99.90;;;;;;5071283;28;20271;-74
2022/03/06 08:13:43;;;;;;;15.90;12.07;;;1.80;99.90;;;;;;5071636;28;20238;-75
2022/03/06 08:16:12;;;;;;;17.10;11.53;;;2.50;99.90;;;;;;5071687;28;20224;-76
2022/03/06 08:18:40;;;;;;;15.53;11.47;;;3.60;99.90;;;;;;5071674;28;20238;-76
2022/03/06 08:21:08;;;;;;;14.77;11.27;;;4.50;98.60;;;;;;5071737;28;20563;-75
2022/03/06 08:23:37;;;;;;;16.00;12.17;;;5.70;95.80;;;;;;5072104;28;20332;-74
2022/03/06 08:26:05;;;;;;;13.80;11.33;;;6.70;92.70;;;;;;5071457;28;20219;-74
2022/03/06 08:28:33;;;;;;;15.50;11.70;;;7.80;91.50;;;;;;5071828;28;20216;-75
2022/03/06 08:31:04;;;;;;;14.03;11.33;;;9.30;85.00;;;;;;5071686;28;20196;-76
2022/03/06 08:33:32;;;;;;;15.40;11.43;;;9.60;77.90;;;;;;5072636;28;20204;-76
2022/03/06 08:36:01;;;;;;;13.50;11.67;;;8.80;77.20;;;;;;5060959;28;20234;-74
2022/03/06 08:38:29;;;;;;;12.67;11.00;;;8.90;76.70;;;;;;5069372;28;20265;-77
2022/03/06 08:40:58;;;;;;;13.47;11.67;;;9.30;75.90;;;;;;5075210;28;20205;-75
2022/03/06 08:43:27;;;;;;;12.63;11.20;;;10.00;72.70;;;;;;5074839;28;20569;-76
2022/03/06 08:45:55;;;;;;;12.70;11.33;;;9.70;70.70;;;;;;5074653;28;20258;-76
2022/03/06 08:48:23;;;;;;;13.33;11.63;;;10.50;67.70;;;;;;5074810;28;20208;-75
2022/03/06 08:50:52;;;;;;;14.63;11.43;;;10.10;67.50;;;;;;5074149;28;20697;-74
2022/03/06 08:53:20;;;;;;;13.27;10.50;;;10.50;65.30;;;;;;5074279;28;20628;-76
2022/03/06 08:55:48;;;;;;;12.87;11.27;;;9.70;68.80;;;;;;5074323;28;20208;-75
2022/03/06 08:58:18;;;;;;;12.87;10.87;;;10.20;66.70;;;;;;5074633;28;20257;-75
2022/03/06 09:00:47;;;;;;;13.83;11.10;;;10.50;65.00;;;;;;5074362;28;20215;-74
2022/03/06 09:03:15;;;;;;;12.20;10.83;;;10.40;63.40;;;;;;5073410;28;20195;-75
2022/03/06 09:05:44;;;;;;;12.03;10.73;;;10.90;65.90;;;;;;5073941;28;20660;-76
2022/03/06 09:08:14;;;;;;;12.07;10.60;;;10.90;62.50;;;;;;5074442;28;20606;-75
2022/03/06 09:10:42;;;;;;;12.40;10.53;;;10.90;60.40;;;;;;5074460;28;20270;-75
2022/03/06 09:13:13;;;;;;;12.10;10.80;;;11.10;62.50;;;;;;5067464;28;20670;-77
2022/03/06 09:15:43;;;;;;;12.00;10.70;;;11.60;60.30;;;;;;5074686;28;20276;-76
2022/03/06 09:18:11;;;;;;;12.87;11.23;;;12.70;58.70;;;;;;5073843;28;20203;-77
2022/03/06 09:20:39;;;;;;;12.83;11.10;;;12.30;56.30;;;;;;5073825;28;20212;-75
2022/03/06 09:23:09;;;;;;;12.63;10.80;;;11.40;56.20;;;;;;5073940;28;20211;-76
2022/03/06 09:25:38;;;;;;;12.83;10.47;;;10.70;57.50;;;;;;5073428;28;20231;-73
2022/03/06 09:28:07;;;;;;;14.30;11.70;;;10.90;57.20;;;;;;5073947;28;20208;-75
2022/03/06 09:30:39;;;;;;;11.40;10.20;;;10.10;59.20;;;;;;5073738;28;20299;-75
2022/03/06 09:33:10;;;;;;;12.90;11.10;;;11.20;57.80;;;;;;5073799;28;20362;-77
2022/03/06 09:35:39;;;;;;;11.03;9.40;;;11.30;55.90;;;;;;5074028;28;20218;-75
2022/03/06 09:38:14;;;;;;;13.67;10.30;;;10.00;56.80;;;;;;5072978;28;20207;-75
2022/03/06 09:40:44;;;;;;;12.63;10.87;;;9.50;58.80;;;;;;5073304;28;20240;-75
2022/03/06 09:43:16;;;;;;;13.53;10.50;;;9.30;59.40;;;;;;5073509;28;20252;-74
2022/03/06 09:45:46;;;;;;;15.10;12.37;;;10.10;58.00;;;;;;5072890;28;20208;-77
2022/03/06 09:48:17;;;;;;;13.00;10.27;;;10.30;56.90;;;;;;5076594;28;20661;-77
2022/03/06 09:50:45;;;;;;;11.00;9.50;;;9.50;57.90;;;;;;5073340;28;20222;-75
2022/03/06 09:53:13;;;;;;;12.07;10.47;;;10.50;58.00;;;;;;5073957;28;20662;-76
2022/03/06 09:55:42;;;;;;;12.37;10.13;;;11.60;55.60;;;;;;5073255;28;20207;-75
2022/03/06 09:58:11;;;;;;;12.10;9.90;;;11.10;54.10;;;;;;5073372;28;20290;-75
2022/03/06 10:00:41;;;;;;;12.93;10.77;;;10.90;54.40;;;;;;5072798;28;20270;-74
2022/03/06 10:03:19;;;;;;;10.73;9.60;;;11.30;54.40;;;;;;5073405;28;20286;-76
2022/03/06 10:05:50;;;;;;;11.63;9.90;;;11.60;53.70;;;;;;5072714;28;20304;-79
2022/03/06 10:08:24;;;;;;;11.00;9.80;;;12.60;52.70;;;;;;5073215;28;20225;-77
2022/03/06 10:10:54;;;;;;;11.33;9.80;;;11.80;51.60;;;;;;5072793;28;20203;-76
2022/03/06 10:13:25;;;;;;;12.30;10.20;;;12.00;52.30;;;;;;5072648;28;20291;-77
2022/03/06 10:16:14;;;;;;;10.80;8.97;;;11.70;52.50;;;;;;5072885;28;20245;-76
2022/03/06 10:18:46;;;;;;;11.33;9.73;;;12.50;52.00;;;;;;5072558;28;20211;-77
2022/03/06 10:21:17;;;;;;;10.13;8.80;;;12.50;53.00;;;;;;5072626;28;20214;-78
2022/03/06 10:23:49;;;;;;;10.17;9.17;;;11.90;52.00;;;;;;5073329;28;20283;-77
2022/03/06 10:26:21;;;;;;;11.53;10.33;;;12.30;51.90;;;;;;5072474;28;20292;-76
2022/03/06 10:28:52;;;;;;;12.30;10.37;;;11.40;52.40;;;;;;5072707;28;20214;-75
2022/03/06 10:31:22;;;;;;;48.07;26.33;;;11.30;53.20;;;;;;5072591;28;20204;-75
2022/03/06 10:34:04;;;;;;;13.00;11.40;;;11.50;53.30;;;;;;5072539;28;20587;-75
2022/03/06 10:36:35;;;;;;;11.50;9.87;;;10.10;53.70;;;;;;5072332;28;20280;-75
2022/03/06 10:39:09;;;;;;;11.93;9.90;;;11.10;54.00;;;;;;5071726;28;20235;-77
2022/03/06 10:41:39;;;;;;;10.73;9.63;;;11.20;53.20;;;;;;5061434;28;20223;-76
2022/03/06 10:44:09;;;;;;;10.47;9.00;;;11.70;53.40;;;;;;5072035;28;20661;-76
2022/03/06 10:46:38;;;;;;;11.63;9.20;;;12.60;52.80;;;;;;5073281;28;20212;-75
2022/03/06 10:49:13;;;;;;;10.87;9.43;;;11.90;51.20;;;;;;5072903;28;20218;-75
2022/03/06 10:51:46;;;;;;;10.30;9.27;;;12.10;50.90;;;;;;5059957;28;20196;-75
2022/03/06 10:54:19;;;;;;;12.30;10.00;;;12.50;49.20;;;;;;5052459;28;20669;-75
2022/03/06 10:56:50;;;;;;;9.77;8.40;;;12.50;50.20;;;;;;5056491;28;20294;-76
2022/03/06 10:59:21;;;;;;;11.63;9.47;;;12.90;50.40;;;;;;5056628;28;20238;-75
2022/03/06 11:01:50;;;;;;;11.00;9.43;;;12.20;49.10;;;;;;5068934;28;20665;-78
2022/03/06 11:04:22;;;;;;;10.50;8.77;;;11.00;50.90;;;;;;5070667;28;20262;-74
2022/03/06 11:06:51;;;;;;;12.30;8.87;;;10.90;50.90;;;;;;5068595;28;20211;-77
2022/03/06 11:09:24;;;;;;;10.30;9.07;;;11.60;51.10;;;;;;5052990;28;20295;-74
2022/03/06 11:11:52;;;;;;;11.47;9.10;;;11.50;51.40;;;;;;5057861;28;20207;-76
2022/03/06 11:14:20;;;;;;;10.97;9.23;;;10.30;50.70;;;;;;5072140;28;20207;-76
2022/03/06 11:16:48;;;;;;;9.77;8.40;;;10.30;52.30;;;;;;5073063;28;20257;-76
2022/03/06 11:19:17;;;;;;;11.17;9.07;;;10.80;51.30;;;;;;5072442;28;20314;-74
2022/03/06 11:22:18;;;;;;;9.93;8.93;;;10.20;52.10;;;;;;5067577;28;20206;-76
2022/03/06 11:24:52;;;;;;;16.90;12.90;;;9.20;53.90;;;;;;5069195;28;20235;-75
2022/03/06 11:27:37;;;;;;;10.87;9.03;;;10.10;52.30;;;;;;5052513;28;20212;-75
2022/03/06 11:30:10;;;;;;;10.43;8.70;;;9.90;52.90;;;;;;5052617;28;20235;-74
2022/03/06 11:32:47;;;;;;;10.40;8.97;;;9.70;53.10;;;;;;5067008;28;20263;-77
2022/03/06 11:35:18;;;;;;;10.27;9.17;;;9.10;52.60;;;;;;5067212;28;20238;-75
2022/03/06 11:37:53;;;;;;;10.80;9.13;;;9.80;53.60;;;;;;5069387;28;20208;-76
2022/03/06 11:40:52;;;;;;;11.20;8.30;;;10.50;49.60;;;;;;5071195;28;20207;-77
2022/03/06 11:43:35;;;;;;;10.50;8.80;;;11.00;50.80;;;;;;5071591;28;20246;-75
2022/03/06 11:46:07;;;;;;;10.07;8.40;;;10.70;50.80;;;;;;5055576;28;20287;-75
2022/03/06 11:49:11;;;;;;;10.77;9.00;;;10.70;52.50;;;;;;5062136;28;20257;-76
2022/03/06 11:51:45;;;;;;;10.17;8.33;;;10.90;50.10;;;;;;5070972;28;20668;-76
2022/03/06 11:54:18;;;;;;;10.63;9.30;;;11.10;51.10;;;;;;5071028;28;20203;-75
2022/03/06 11:57:05;;;;;;;10.03;8.50;;;11.00;52.30;;;;;;5070608;28;20231;-77
2022/03/06 11:59:44;;;;;;;10.60;9.50;;;11.30;51.50;;;;;;5070406;28;20223;-76
2022/03/06 12:02:18;;;;;;;10.43;8.37;;;9.80;51.40;;;;;;5070312;28;20214;-75
2022/03/06 12:04:55;;;;;;;10.60;9.10;;;9.90;52.80;;;;;;5070925;28;20294;-75
2022/03/06 12:07:26;;;;;;;11.23;9.50;;;9.30;53.20;;;;;;5070994;28;20210;-76
2022/03/06 12:09:56;;;;;;;10.47;9.17;;;8.90;53.80;;;;;;5073051;28;20199;-76
2022/03/06 12:12:25;;;;;;;11.10;9.30;;;8.70;54.10;;;;;;5074791;28;20195;-75
2022/03/06 12:14:56;;;;;;;12.73;9.20;;;8.00;55.90;;;;;;5073636;28;20608;-76
2022/03/06 12:17:37;;;;;;;10.77;9.27;;;8.20;55.20;;;;;;5068848;28;20207;-78
2022/03/06 12:20:31;;;;;;;11.27;8.87;;;7.90;55.90;;;;;;5069570;28;20274;-76
2022/03/06 12:23:06;;;;;;;11.53;8.53;;;8.20;57.40;;;;;;5069276;28;20214;-76
2022/03/06 12:25:39;;;;;;;11.10;8.90;;;8.60;56.10;;;;;;5072108;28;20532;-75
2022/03/06 12:28:29;;;;;;;13.50;9.17;;;9.30;56.70;;;;;;5075064;28;20306;-75
2022/03/06 12:30:57;;;;;;;11.63;8.50;;;9.60;55.90;;;;;;5055766;28;20193;-76
2022/03/06 12:33:32;;;;;;;10.80;8.60;;;9.50;55.80;;;;;;5069865;28;20266;-77
2022/03/06 12:36:20;;;;;;;10.43;8.87;;;9.30;55.70;;;;;;5072918;28;20238;-76
2022/03/06 12:38:54;;;;;;;10.97;8.80;;;8.80;55.90;;;;;;5069850;28;20641;-76
2022/03/06 12:41:24;;;;;;;10.37;8.57;;;9.20;55.80;;;;;;5067139;28;20207;-76
2022/03/06 12:44:03;;;;;;;10.63;8.10;;;9.40;54.90;;;;;;5066852;28;20616;-76
2022/03/06 12:46:36;;;;;;;13.10;9.10;;;8.70;55.50;;;;;;5067439;28;20203;-76